Gdov, Russia
Current Conditions -  °F | °C
As of 8:50 PM on Friday 28 Nov 2014 (Local Time) from EETU Reporting Station
Overcast Overcast  
Wind Chill: 14°   Ceiling: 500
Heat Index: 21°   Visibility: 6mi
Dew Point: 18°   Wind: 6mph
Humidity: 86%   Direction: 120°ESE
Pressure: 30.59"   Gusts: NA
Location:  58.74°N, 27.81°E
Report Text: EETU 281750Z AUTO 12005KT 9999 OVC005/// M06/M08 Q1036
Loading
Personal Weather Stations






























Interactive Weather Map New forecast layout! Learn more

10-Day Weather Forecast

Advertisements
Track Severe Weather on mobile